Map

Track Data

SID SEASON NUMBER BASIN SUBBASIN NAME ISO_TIME NATURE LAT LON WMO_WIND WMO_PRES WMO_AGENCY TRACK_TYPE DIST2LAND LANDFALL IFLAG USA_AGENCY USA_ATCF_ID USA_LAT USA_LON USA_RECORD USA_STATUS USA_WIND USA_PRES USA_SSHS USA_R34_NE USA_R34_SE USA_R34_SW USA_R34_NW USA_R50_NE USA_R50_SE USA_R50_SW USA_R50_NW USA_R64_NE USA_R64_SE USA_R64_SW USA_R64_NW USA_POCI USA_ROCI USA_RMW USA_EYE TOKYO_LAT TOKYO_LON TOKYO_GRADE TOKYO_WIND TOKYO_PRES TOKYO_R50_DIR TOKYO_R50_LONG TOKYO_R50_SHORT TOKYO_R30_DIR TOKYO_R30_LONG TOKYO_R30_SHORT TOKYO_LAND CMA_LAT CMA_LON CMA_CAT CMA_WIND CMA_PRES HKO_LAT HKO_LON HKO_CAT HKO_WIND HKO_PRES NEWDELHI_LAT NEWDELHI_LON NEWDELHI_GRADE NEWDELHI_WIND NEWDELHI_PRES NEWDELHI_CI NEWDELHI_DP NEWDELHI_POCI REUNION_LAT REUNION_LON REUNION_TYPE REUNION_WIND REUNION_PRES REUNION_TNUM REUNION_CI REUNION_RMW REUNION_R34_NE REUNION_R34_SE REUNION_R34_SW REUNION_R34_NW REUNION_R50_NE REUNION_R50_SE REUNION_R50_SW REUNION_R50_NW REUNION_R64_NE REUNION_R64_SE REUNION_R64_SW REUNION_R64_NW BOM_LAT BOM_LON BOM_TYPE BOM_WIND BOM_PRES BOM_TNUM BOM_CI BOM_RMW BOM_R34_NE BOM_R34_SE BOM_R34_SW BOM_R34_NW BOM_R50_NE BOM_R50_SE BOM_R50_SW BOM_R50_NW BOM_R64_NE BOM_R64_SE BOM_R64_SW BOM_R64_NW BOM_ROCI BOM_POCI BOM_EYE BOM_POS_METHOD BOM_PRES_METHOD NADI_LAT NADI_LON NADI_CAT NADI_WIND NADI_PRES WELLINGTON_LAT WELLINGTON_LON WELLINGTON_WIND WELLINGTON_PRES DS824_LAT DS824_LON DS824_STAGE DS824_WIND DS824_PRES TD9636_LAT TD9636_LON TD9636_STAGE TD9636_WIND TD9636_PRES TD9635_LAT TD9635_LON TD9635_WIND TD9635_PRES TD9635_ROCI NEUMANN_LAT NEUMANN_LON NEUMANN_CLASS NEUMANN_WIND NEUMANN_PRES MLC_LAT MLC_LON MLC_CLASS MLC_WIND MLC_PRES USA_GUST BOM_GUST BOM_GUST_PER REUNION_GUST REUNION_GUST_PER USA_SEAHGT USA_SEARAD_NE USA_SEARAD_SE USA_SEARAD_SW USA_SEARAD_NW STORM_SPEED STORM_DIR
1932281N16278 1932 59 NA CS NOT_NAMED 1932-10-07 00:00:00 TS 15.6000 -82.4000 30 hurdat_atl main 100 93 O_____________ hurdat_atl AL111932 15.6000 -82.4000 TD 30 -1 4 297
1932281N16278 1932 59 NA CS NOT_NAMED 1932-10-07 03:00:00 TS 15.7000 -82.6000 main 94 85 P_____________ AL111932 15.7000 -82.6000 TD 30 -1 4 297
1932281N16278 1932 59 NA CS NOT_NAMED 1932-10-07 06:00:00 TS 15.8000 -82.8000 30 hurdat_atl main 85 77 O_____________ hurdat_atl AL111932 15.8000 -82.8000 TD 30 -1 4 297
1932281N16278 1932 59 NA CS NOT_NAMED 1932-10-07 09:00:00 TS 15.9000 -83.0000 main 79 74 P_____________ AL111932 15.9000 -83.0000 TD 32 -1 4 297
1932281N16278 1932 59 NA CS NOT_NAMED 1932-10-07 12:00:00 TS 16.0000 -83.2000 35 hurdat_atl main 81 79 O_____________ hurdat_atl AL111932 16.0000 -83.2000 TS 35 0 4 297
1932281N16278 1932 59 NA CS NOT_NAMED 1932-10-07 15:00:00 TS 16.1000 -83.4000 main 84 77 P_____________ AL111932 16.1000 -83.4000 TS 35 0 4 297
1932281N16278 1932 59 NA CS NOT_NAMED 1932-10-07 18:00:00 TS 16.2000 -83.6000 35 hurdat_atl main 79 74 O_____________ hurdat_atl AL111932 16.2000 -83.6000 TS 35 0 4 297
1932281N16278 1932 59 NA CS NOT_NAMED 1932-10-07 21:00:00 TS 16.2925 -83.8000 main 77 70 P_____________ AL111932 16.2925 -83.8000 TS 35 0 4 297
1932281N16278 1932 59 NA CS NOT_NAMED 1932-10-08 00:00:00 TS 16.4000 -84.0000 35 hurdat_atl main 74 70 O_____________ hurdat_atl AL111932 16.4000 -84.0000 TS 35 0 5 303
1932281N16278 1932 59 NA CS NOT_NAMED 1932-10-08 03:00:00 TS 16.5425 -84.2000 main 79 79 P_____________ AL111932 16.5425 -84.2000 TS 35 0 5 308
1932281N16278 1932 59 NA CS NOT_NAMED 1932-10-08 06:00:00 TS 16.7000 -84.4000 35 hurdat_atl main 95 92 O_____________ hurdat_atl AL111932 16.7000 -84.4000 TS 35 0 5 311
1932281N16278 1932 59 NA CS NOT_NAMED 1932-10-08 09:00:00 TS 16.8574 -84.5850 main 112 111 P_____________ AL111932 16.8574 -84.5850 TS 35 0 5 308
1932281N16278 1932 59 NA CS NOT_NAMED 1932-10-08 12:00:00 TS 17.0000 -84.8000 35 hurdat_atl main 123 123 O_____________ hurdat_atl AL111932 17.0000 -84.8000 TS 35 0 5 298
1932281N16278 1932 59 NA CS NOT_NAMED 1932-10-08 15:00:00 TS 17.1150 -85.0850 main 134 134 P_____________ AL111932 17.1150 -85.0850 TS 37 0 6 289
1932281N16278 1932 59 NA CS NOT_NAMED 1932-10-08 18:00:00 TS 17.2000 -85.4000 40 hurdat_atl main 145 145 O_____________ hurdat_atl AL111932 17.2000 -85.4000 TS 40 0 6 283
1932281N16278 1932 59 NA CS NOT_NAMED 1932-10-08 21:00:00 TS 17.2500 -85.7151 main 156 156 P_____________ AL111932 17.2500 -85.7151 TS 42 0 6 280
1932281N16278 1932 59 NA CS NOT_NAMED 1932-10-09 00:00:00 TS 17.3000 -86.0000 45 hurdat_atl main 157 157 O_____________ hurdat_atl AL111932 17.3000 -86.0000 TS 45 0 5 287
1932281N16278 1932 59 NA CS NOT_NAMED 1932-10-09 03:00:00 TS 17.3924 -86.2150 main 170 167 P_____________ AL111932 17.3924 -86.2150 TS 47 0 4 298
1932281N16278 1932 59 NA CS NOT_NAMED 1932-10-09 06:00:00 TS 17.5000 -86.4000 50 hurdat_atl main 167 143 O_____________ hurdat_atl AL111932 17.5000 -86.4000 TS 50 0 4 299
1932281N16278 1932 59 NA CS NOT_NAMED 1932-10-09 09:00:00 TS 17.6000 -86.6000 main 143 119 P_____________ AL111932 17.6000 -86.6000 TS 52 0 4 298
1932281N16278 1932 59 NA CS NOT_NAMED 1932-10-09 12:00:00 TS 17.7000 -86.8000 55 hurdat_atl main 119 95 O_____________ hurdat_atl AL111932 17.7000 -86.8000 TS 55 0 4 298
1932281N16278 1932 59 NA CS NOT_NAMED 1932-10-09 15:00:00 TS 17.8075 -87.0000 main 95 71 P_____________ AL111932 17.8075 -87.0000 TS 57 0 4 298
1932281N16278 1932 59 NA CS NOT_NAMED 1932-10-09 18:00:00 TS 17.9000 -87.2000 60 hurdat_atl main 71 53 O_____________ hurdat_atl AL111932 17.9000 -87.2000 TS 60 0 4 290
1932281N16278 1932 59 NA CS NOT_NAMED 1932-10-09 21:00:00 TS 17.9500 -87.4001 main 53 30 P_____________ AL111932 17.9500 -87.4001 TS 60 0 4 285
1932281N16278 1932 59 NA CS NOT_NAMED 1932-10-10 00:00:00 TS 18.0000 -87.6000 60 hurdat_atl main 30 11 O_____________ hurdat_atl AL111932 18.0000 -87.6000 TS 60 0 4 292
1932281N16278 1932 59 NA CS NOT_NAMED 1932-10-10 03:00:00 TS 18.1000 -87.7925 main 11 10 P_____________ AL111932 18.1000 -87.7925 TS 55 0 4 298
1932281N16278 1932 59 NA CS NOT_NAMED 1932-10-10 06:00:00 TS 18.2000 -88.0000 50 hurdat_atl main 10 0 O_____________ hurdat_atl AL111932 18.2000 -88.0000 TS 50 0 5 292
1932281N16278 1932 59 NA NA NOT_NAMED 1932-10-10 09:00:00 TS 18.2725 -88.2425 main 0 0 P_____________ AL111932 18.2725 -88.2425 TS 45 0 5 282
1932281N16278 1932 59 NA NA NOT_NAMED 1932-10-10 12:00:00 TS 18.3000 -88.5000 40 hurdat_atl main 0 0 O_____________ hurdat_atl AL111932 18.3000 -88.5000 TS 40 0 5 269
1932281N16278 1932 59 NA NA NOT_NAMED 1932-10-10 15:00:00 TS 18.2650 -88.7501 main 0 0 P_____________ AL111932 18.2650 -88.7501 TS 37 0 5 258
1932281N16278 1932 59 NA NA NOT_NAMED 1932-10-10 18:00:00 TS 18.2000 -89.0000 35 hurdat_atl main 0 0 O_____________ hurdat_atl AL111932 18.2000 -89.0000 TS 35 0 5 256
1932281N16278 1932 59 NA NA NOT_NAMED 1932-10-10 21:00:00 TS 18.1500 -89.2500 main 0 0 P_____________ AL111932 18.1500 -89.2500 TS 35 0 5 258
1932281N16278 1932 59 NA NA NOT_NAMED 1932-10-11 00:00:00 TS 18.1000 -89.5000 35 hurdat_atl main 0 0 O_____________ hurdat_atl AL111932 18.1000 -89.5000 TS 35 0 5 257
1932281N16278 1932 59 NA NA NOT_NAMED 1932-10-11 03:00:00 TS 18.0425 -89.7575 main 0 0 P_____________ AL111932 18.0425 -89.7575 TS 35 0 5 258
1932281N16278 1932 59 NA NA NOT_NAMED 1932-10-11 06:00:00 TS 18.0000 -90.0000 35 hurdat_atl main 0 0 O_____________ hurdat_atl AL111932 18.0000 -90.0000 TS 35 0 4 263
1932281N16278 1932 59 NA NA NOT_NAMED 1932-10-11 09:00:00 TS 17.9925 -90.2150 main 0 0 P_____________ AL111932 17.9925 -90.2150 TS 32 -1 4 270
1932281N16278 1932 59 NA NA NOT_NAMED 1932-10-11 12:00:00 TS 18.0000 -90.4000 30 hurdat_atl main 0 0 O_____________ hurdat_atl AL111932 18.0000 -90.4000 TD 30 -1 3 271
1932281N16278 1932 59 NA NA NOT_NAMED 1932-10-11 15:00:00 TS 18.0000 -90.5725 main 0 0 P_____________ AL111932 18.0000 -90.5725 TD 30 -1 3 270
1932281N16278 1932 59 NA NA NOT_NAMED 1932-10-11 18:00:00 TS 18.0000 -90.7000 30 hurdat_atl main 0 0 O_____________ hurdat_atl AL111932 18.0000 -90.7000 TD 30 -1 2 270
1932281N16278 1932 59 NA NA NOT_NAMED 1932-10-11 21:00:00 TS 18.0000 -90.7650 main 0 0 P_____________ AL111932 18.0000 -90.7650 TD 30 -1 1 270
1932281N16278 1932 59 NA NA NOT_NAMED 1932-10-12 00:00:00 TS 18.0000 -90.8000 30 hurdat_atl main 0 0 O_____________ hurdat_atl AL111932 18.0000 -90.8000 TD 30 -1 1 270
1932281N16278 1932 59 NA NA NOT_NAMED 1932-10-12 03:00:00 TS 18.0000 -90.8500 main 0 0 P_____________ AL111932 18.0000 -90.8500 TD 30 -1 1 270
1932281N16278 1932 59 NA NA NOT_NAMED 1932-10-12 06:00:00 TS 18.0000 -90.9000 30 hurdat_atl main 0 0 O_____________ hurdat_atl AL111932 18.0000 -90.9000 TD 30 -1 1 260
1932281N16278 1932 59 NA NA NOT_NAMED 1932-10-12 09:00:00 TS 17.9850 -90.9425 main 0 0 P_____________ AL111932 17.9850 -90.9425 TD 30 -1 1 270
1932281N16278 1932 59 NA NA NOT_NAMED 1932-10-12 12:00:00 TS 18.0000 -91.0000 30 hurdat_atl main 0 0 O_____________ hurdat_atl AL111932 18.0000 -91.0000 TD 30 -1 2 301
1932281N16278 1932 59 NA NA NOT_NAMED 1932-10-12 15:00:00 TS 18.0700 -91.0850 main 0 0 P_____________ AL111932 18.0700 -91.0850 TD 30 -1 3 316
1932281N16278 1932 59 NA NA NOT_NAMED 1932-10-12 18:00:00 TS 18.2000 -91.2000 30 hurdat_atl main 0 0 O_____________ hurdat_atl AL111932 18.2000 -91.2000 TD 30 -1 4 322
1932281N16278 1932 59 NA NA NOT_NAMED 1932-10-12 21:00:00 TS 18.3850 -91.3425 main 0 0 P_____________ AL111932 18.3850 -91.3425 TD 30 -1 5 325
1932281N16278 1932 59 NA GM NOT_NAMED 1932-10-13 00:00:00 TS 18.6000 -91.5000 30 hurdat_atl main 15 10 O_____________ hurdat_atl AL111932 18.6000 -91.5000 TD 30 -1 5 325
1932281N16278 1932 59 NA GM NOT_NAMED 1932-10-13 03:00:00 TS 18.7925 -91.6426 main 10 10 P_____________ AL111932 18.7925 -91.6426 TD 30 -1 5 325
1932281N16278 1932 59 NA GM NOT_NAMED 1932-10-13 06:00:00 TS 19.0000 -91.8000 30 hurdat_atl main 33 33 O_____________ hurdat_atl AL111932 19.0000 -91.8000 TD 30 -1 6 325
1932281N16278 1932 59 NA GM NOT_NAMED 1932-10-13 09:00:00 TS 19.2424 -91.9776 main 62 62 P_____________ AL111932 19.2424 -91.9776 TD 32 -1 6 323
1932281N16278 1932 59 NA GM NOT_NAMED 1932-10-13 12:00:00 TS 19.5000 -92.2000 35 hurdat_atl main 99 99 O_____________ hurdat_atl AL111932 19.5000 -92.2000 TS 35 0 7 317
1932281N16278 1932 59 NA GM NOT_NAMED 1932-10-13 15:00:00 TS 19.7425 -92.4776 main 123 123 P_____________ AL111932 19.7425 -92.4776 TS 35 0 8 311
1932281N16278 1932 59 NA GM NOT_NAMED 1932-10-13 18:00:00 TS 20.0000 -92.8000 35 hurdat_atl main 156 156 O_____________ hurdat_atl AL111932 20.0000 -92.8000 TS 35 0 8 311
1932281N16278 1932 59 NA GM NOT_NAMED 1932-10-13 21:00:00 TS 20.2926 -93.1575 main 197 197 P_____________ AL111932 20.2926 -93.1575 TS 37 0 9 312
1932281N16278 1932 59 NA GM NOT_NAMED 1932-10-14 00:00:00 TS 20.6000 -93.5000 40 hurdat_atl main 238 238 O_____________ hurdat_atl AL111932 20.6000 -93.5000 TS 40 0 8 315
1932281N16278 1932 59 NA GM NOT_NAMED 1932-10-14 03:00:00 TS 20.8849 -93.7802 main 281 281 P_____________ AL111932 20.8849 -93.7802 TS 40 0 8 322
1932281N16278 1932 59 NA GM NOT_NAMED 1932-10-14 06:00:00 TS 21.2000 -94.0000 40 hurdat_atl main 289 286 O_____________ hurdat_atl AL111932 21.2000 -94.0000 TS 40 0 8 331
1932281N16278 1932 59 NA GM NOT_NAMED 1932-10-14 09:00:00 TS 21.5625 -94.1801 main 297 297 P_____________ AL111932 21.5625 -94.1801 TS 40 0 9 341
1932281N16278 1932 59 NA GM NOT_NAMED 1932-10-14 12:00:00 TS 22.0000 -94.3000 40 hurdat_atl main 312 306 O_____________ hurdat_atl AL111932 22.0000 -94.3000 TS 40 0 10 348
1932281N16278 1932 59 NA GM NOT_NAMED 1932-10-14 15:00:00 TS 22.4975 -94.4021 main 315 315 P_____________ AL111932 22.4975 -94.4021 TS 42 0 11 355
1932281N16278 1932 59 NA GM NOT_NAMED 1932-10-14 18:00:00 TS 23.1000 -94.4000 45 hurdat_atl main 342 342 O_____________ hurdat_atl AL111932 23.1000 -94.4000 TS 45 0 13 6
1932281N16278 1932 59 NA GM NOT_NAMED 1932-10-14 21:00:00 TS 23.8200 -94.2526 main 350 339 P_____________ AL111932 23.8200 -94.2526 TS 45 0 16 14
1932281N16278 1932 59 NA GM NOT_NAMED 1932-10-15 00:00:00 TS 24.6000 -94.0000 45 hurdat_atl main 340 337 O_____________ hurdat_atl AL111932 24.6000 -94.0000 TS 45 0 16 17
1932281N16278 1932 59 NA GM NOT_NAMED 1932-10-15 03:00:00 TS 25.3574 -93.7370 main 346 343 P_____________ AL111932 25.3574 -93.7370 TS 47 0 16 20
1932281N16278 1932 59 NA GM NOT_NAMED 1932-10-15 06:00:00 TS 26.1000 -93.4000 50 hurdat_atl main 369 309 O_____________ hurdat_atl AL111932 26.1000 -93.4000 TS 50 0 16 25
1932281N16278 1932 59 NA GM NOT_NAMED 1932-10-15 09:00:00 TS 26.8225 -92.9799 main 309 224 P_____________ AL111932 26.8225 -92.9799 TS 50 0 16 30
1932281N16278 1932 59 NA GM NOT_NAMED 1932-10-15 12:00:00 TS 27.5000 -92.5000 50 hurdat_atl main 224 150 O_____________ hurdat_atl AL111932 27.5000 -92.5000 TS 50 0 16 33
1932281N16278 1932 59 NA GM NOT_NAMED 1932-10-15 15:00:00 TS 28.1223 -92.0144 main 150 68 P_____________ AL111932 28.1223 -92.0144 TS 50 0 15 36
1932281N16278 1932 59 NA GM NOT_NAMED 1932-10-15 18:00:00 ET 28.7000 -91.5000 50 hurdat_atl main 68 0 O_____________ hurdat_atl AL111932 28.7000 -91.5000 EX 50 -4 15 39
1932281N16278 1932 59 NA NA NOT_NAMED 1932-10-15 21:00:00 ET 29.2649 -90.9571 main 0 0 P_____________ AL111932 29.2649 -90.9571 EX 50 -4 15 41
1932281N16278 1932 59 NA NA NOT_NAMED 1932-10-16 00:00:00 ET 29.8000 -90.4000 50 hurdat_atl main 0 0 O_____________ hurdat_atl AL111932 29.8000 -90.4000 EX 50 -4 14 43
1932281N16278 1932 59 NA NA NOT_NAMED 1932-10-16 03:00:00 ET 30.3073 -89.8493 main 0 0 P_____________ AL111932 30.3073 -89.8493 EX 47 -4 14 44
1932281N16278 1932 59 NA NA NOT_NAMED 1932-10-16 06:00:00 ET 30.8000 -89.3000 45 hurdat_atl main 0 0 O_____________ hurdat_atl AL111932 30.8000 -89.3000 EX 45 -4 14 43
1932281N16278 1932 59 NA NA NOT_NAMED 1932-10-16 09:00:00 ET 31.3225 -88.7276 main 0 0 P_____________ AL111932 31.3225 -88.7276 EX 42 -4 14 43
1932281N16278 1932 59 NA NA NOT_NAMED 1932-10-16 12:00:00 ET 31.8000 -88.2000 40 hurdat_atl main 0 0 O_____________ hurdat_atl AL111932 31.8000 -88.2000 EX 40 -4 12 44
1932281N16278 1932 59 NA NA NOT_NAMED 1932-10-16 15:00:00 ET 32.1722 -87.7618 main 0 0 P_____________ AL111932 32.1722 -87.7618 EX 40 -4 10 44
1932281N16278 1932 59 NA NA NOT_NAMED 1932-10-16 18:00:00 ET 32.5000 -87.4000 40 hurdat_atl main 0 0 O_____________ hurdat_atl AL111932 32.5000 -87.4000 EX 40 -4 9 40
1932281N16278 1932 59 NA NA NOT_NAMED 1932-10-16 21:00:00 ET 32.8574 -87.0773 main 0 0 P_____________ AL111932 32.8574 -87.0773 EX 37 -4 9 36
1932281N16278 1932 59 NA NA NOT_NAMED 1932-10-17 00:00:00 ET 33.2000 -86.8000 35 hurdat_atl main 0 0 O_____________ hurdat_atl AL111932 33.2000 -86.8000 EX 35 -4 8 34
1932281N16278 1932 59 NA NA NOT_NAMED 1932-10-17 03:00:00 ET 33.5074 -86.5496 main 0 0 P_____________ AL111932 33.5074 -86.5496 EX 35 -4 7 35
1932281N16278 1932 59 NA NA NOT_NAMED 1932-10-17 06:00:00 ET 33.8000 -86.3000 35 hurdat_atl main 0 0 O_____________ hurdat_atl AL111932 33.8000 -86.3000 EX 35 -4 7 37
1932281N16278 1932 59 NA NA NOT_NAMED 1932-10-17 09:00:00 ET 34.0924 -86.0221 main 0 0 P_____________ AL111932 34.0924 -86.0221 EX 35 -4 8 40
1932281N16278 1932 59 NA NA NOT_NAMED 1932-10-17 12:00:00 ET 34.4000 -85.7000 35 hurdat_atl main 0 0 O_____________ hurdat_atl AL111932 34.4000 -85.7000 EX 35 -4 9 42
1932281N16278 1932 59 NA NA NOT_NAMED 1932-10-17 15:00:00 ET 34.7349 -85.3222 main 0 0 P_____________ AL111932 34.7349 -85.3222 EX 35 -4 10 43
1932281N16278 1932 59 NA NA NOT_NAMED 1932-10-17 18:00:00 ET 35.1000 -84.9000 35 hurdat_atl main 0 0 O_____________ hurdat_atl AL111932 35.1000 -84.9000 EX 35 -4 10 43
1932281N16278 1932 59 NA NA NOT_NAMED 1932-10-17 21:00:00 ET 35.4998 -84.4648 main 0 0 P_____________ AL111932 35.4998 -84.4648 EX 35 -4 11 42
1932281N16278 1932 59 NA NA NOT_NAMED 1932-10-18 00:00:00 ET 35.9000 -84.0000 35 hurdat_atl main 0 0 O_____________ hurdat_atl AL111932 35.9000 -84.0000 EX 35 -4 11 45
1932281N16278 1932 59 NA NA NOT_NAMED 1932-10-18 03:00:00 ET 36.2572 -83.5218 main 0 0 P_____________ AL111932 36.2572 -83.5218 EX 35 -4 11 49
1932281N16278 1932 59 NA NA NOT_NAMED 1932-10-18 06:00:00 ET 36.6000 -83.0000 35 hurdat_atl main 0 0 O_____________ hurdat_atl AL111932 36.6000 -83.0000 EX 35 -4 11 52
1932281N16278 1932 59 NA NA NOT_NAMED 1932-10-18 09:00:00 ET 36.9482 -82.4188 main 0 0 P_____________ AL111932 36.9482 -82.4188 EX 35 -4 12 54
1932281N16278 1932 59 NA NA NOT_NAMED 1932-10-18 12:00:00 ET 37.3000 -81.8000 35 hurdat_atl main 0 O_____________ hurdat_atl AL111932 37.3000 -81.8000 EX 35 -4 12 54

About IBTrACS Database

This database is a web-friendly format of International Best Track Archive for Climate Stewardship (IBTrACS), a global best track data archive curated by NOAA dating back to 1842.

Updated: 2021-12-08